createdAt,value
2023-04-15T00:00:03.091Z,5.13
2023-04-15T00:01:02.919Z,5.07
2023-04-15T00:02:03.152Z,5.00
2023-04-15T00:03:03.059Z,4.94
2023-04-15T00:04:03.242Z,4.90
2023-04-15T00:05:03.317Z,4.86
2023-04-15T00:06:03.304Z,4.85
2023-04-15T00:07:02.340Z,4.81
2023-04-15T00:08:02.350Z,4.84
2023-04-15T00:09:02.313Z,4.91
2023-04-15T00:10:02.567Z,4.99
2023-04-15T00:11:01.936Z,5.03
2023-04-15T00:12:02.771Z,5.08
2023-04-15T00:13:03.061Z,5.06
2023-04-15T00:14:02.767Z,4.94
2023-04-15T00:15:02.550Z,4.88
2023-04-15T00:16:02.785Z,4.92
2023-04-15T00:17:03.074Z,4.96
2023-04-15T00:18:02.845Z,4.96
2023-04-15T00:19:02.869Z,4.96
2023-04-15T00:20:02.921Z,4.96
2023-04-15T00:21:03.021Z,4.95
2023-04-15T00:22:02.349Z,4.92
2023-04-15T00:23:02.423Z,4.92
2023-04-15T00:24:02.245Z,4.93
2023-04-15T00:25:01.836Z,4.93
2023-04-15T00:26:01.981Z,4.91
2023-04-15T00:27:02.868Z,4.84
2023-04-15T00:28:02.601Z,4.82
2023-04-15T00:29:02.599Z,4.85
2023-04-15T00:30:02.495Z,4.85
2023-04-15T00:31:03.018Z,4.81
2023-04-15T00:32:02.850Z,4.87
2023-04-15T00:33:02.987Z,4.88
2023-04-15T00:34:03.040Z,4.91
2023-04-15T00:35:02.975Z,4.92
2023-04-15T00:36:02.993Z,4.91
2023-04-15T00:37:02.949Z,4.92
2023-04-15T00:38:02.986Z,4.92
2023-04-15T00:39:02.793Z,4.92
2023-04-15T00:40:02.853Z,4.93
2023-04-15T00:41:02.916Z,4.98
2023-04-15T00:42:02.313Z,4.98
2023-04-15T00:43:01.979Z,4.94
2023-04-15T00:44:02.100Z,4.94
2023-04-15T00:45:01.778Z,4.96
2023-04-15T00:46:02.315Z,4.90
2023-04-15T00:47:02.123Z,4.85
2023-04-15T00:48:02.232Z,4.83
2023-04-15T00:49:02.479Z,4.82
2023-04-15T00:50:01.967Z,4.80
2023-04-15T00:51:02.131Z,4.84
2023-04-15T00:52:02.043Z,4.86
2023-04-15T00:53:02.012Z,4.85
2023-04-15T00:54:02.098Z,4.85
2023-04-15T00:55:02.332Z,4.77
2023-04-15T00:56:02.169Z,4.73
2023-04-15T00:57:02.483Z,4.72
2023-04-15T00:58:02.390Z,4.78
2023-04-15T00:59:02.410Z,4.77
2023-04-15T01:00:02.645Z,4.72
2023-04-15T01:01:01.928Z,4.74
2023-04-15T01:02:03.097Z,4.77
2023-04-15T01:03:02.611Z,4.80
2023-04-15T01:04:02.610Z,4.81
2023-04-15T01:05:02.635Z,4.81
2023-04-15T01:06:04.014Z,4.81
2023-04-15T01:07:03.071Z,4.80
2023-04-15T01:08:03.318Z,4.76
2023-04-15T01:09:03.344Z,4.74
2023-04-15T01:10:03.279Z,4.73
2023-04-15T01:11:03.323Z,4.68
2023-04-15T01:12:03.293Z,4.62
2023-04-15T01:13:02.706Z,4.57
2023-04-15T01:14:03.112Z,4.61
2023-04-15T01:15:02.926Z,4.66
2023-04-15T01:16:03.286Z,4.66
2023-04-15T01:17:03.219Z,4.69
2023-04-15T01:18:03.407Z,4.73
2023-04-15T01:19:03.352Z,4.75
2023-04-15T01:20:03.206Z,4.75
2023-04-15T01:21:03.628Z,4.72
2023-04-15T01:22:02.871Z,4.74
2023-04-15T01:23:02.994Z,4.74
2023-04-15T01:24:03.138Z,4.73
2023-04-15T01:25:02.921Z,4.69
2023-04-15T01:26:03.135Z,4.68
2023-04-15T01:27:03.292Z,4.66
2023-04-15T01:28:03.615Z,4.63
2023-04-15T01:29:03.432Z,4.62
2023-04-15T01:30:03.284Z,4.61
2023-04-15T01:31:03.462Z,4.61
2023-04-15T01:32:02.827Z,4.58
2023-04-15T01:33:03.196Z,4.56
2023-04-15T01:34:02.821Z,4.50
2023-04-15T01:35:03.091Z,4.48
2023-04-15T01:36:03.216Z,4.48
2023-04-15T01:37:02.797Z,4.46
2023-04-15T01:38:03.010Z,4.42
2023-04-15T01:39:02.548Z,4.40
2023-04-15T01:40:02.813Z,4.36
2023-04-15T01:41:02.426Z,4.34
2023-04-15T01:42:02.775Z,4.30
2023-04-15T01:43:02.657Z,4.34
2023-04-15T01:44:03.243Z,4.31
2023-04-15T01:45:03.307Z,4.35
2023-04-15T01:46:02.948Z,4.32
2023-04-15T01:47:03.579Z,4.31
2023-04-15T01:48:03.586Z,4.35
2023-04-15T01:49:03.623Z,4.33
2023-04-15T01:50:03.158Z,4.34
2023-04-15T01:51:03.085Z,4.32
2023-04-15T01:52:02.901Z,4.30
2023-04-15T01:53:02.591Z,4.29
2023-04-15T01:54:02.681Z,4.31
2023-04-15T01:55:02.976Z,4.33
2023-04-15T01:56:02.675Z,4.33
2023-04-15T01:57:03.091Z,4.34
2023-04-15T01:58:03.038Z,4.32
2023-04-15T01:59:03.323Z,4.31
2023-04-15T02:00:03.256Z,4.31
2023-04-15T02:01:02.991Z,4.35
2023-04-15T02:02:02.457Z,4.37
2023-04-15T02:03:02.366Z,4.35
2023-04-15T02:04:02.770Z,4.36
2023-04-15T02:05:02.290Z,4.35
2023-04-15T02:06:02.420Z,4.33
2023-04-15T02:07:03.024Z,4.33
2023-04-15T02:08:03.074Z,4.33
2023-04-15T02:09:02.724Z,4.32
2023-04-15T02:10:03.179Z,4.34
2023-04-15T02:11:02.468Z,4.34
2023-04-15T02:12:02.593Z,4.34
2023-04-15T02:13:02.836Z,4.33
2023-04-15T02:14:02.752Z,4.34
2023-04-15T02:15:02.463Z,4.36
2023-04-15T02:16:02.974Z,4.38
2023-04-15T02:17:02.907Z,4.43
2023-04-15T02:18:03.292Z,4.42
2023-04-15T02:19:03.235Z,4.43
2023-04-15T02:20:02.924Z,4.39
2023-04-15T02:21:03.190Z,4.39
2023-04-15T02:22:02.655Z,4.41
2023-04-15T02:23:02.853Z,4.47
2023-04-15T02:24:02.418Z,4.48
2023-04-15T02:25:02.384Z,4.43
2023-04-15T02:26:02.668Z,4.37
2023-04-15T02:27:03.170Z,4.34
2023-04-15T02:28:02.897Z,4.30
2023-04-15T02:29:03.117Z,4.27
2023-04-15T02:30:03.192Z,4.23
2023-04-15T02:31:02.678Z,4.26
2023-04-15T02:32:03.112Z,4.31
2023-04-15T02:33:03.308Z,4.37
2023-04-15T02:34:03.096Z,4.38
2023-04-15T02:35:03.365Z,4.33
2023-04-15T02:36:03.345Z,4.26
2023-04-15T02:37:02.656Z,4.21
2023-04-15T02:38:02.367Z,4.21
2023-04-15T02:39:03.143Z,4.25
2023-04-15T02:40:02.869Z,4.28
2023-04-15T02:41:02.827Z,4.26
2023-04-15T02:42:03.154Z,4.23
2023-04-15T02:43:02.780Z,4.22
2023-04-15T02:44:02.973Z,4.21
2023-04-15T02:45:02.819Z,4.21
2023-04-15T02:46:03.291Z,4.19
2023-04-15T02:47:02.486Z,4.17
2023-04-15T02:48:02.638Z,4.09
2023-04-15T02:49:02.273Z,4.01
2023-04-15T02:50:02.064Z,3.97
2023-04-15T02:51:02.054Z,3.94
2023-04-15T02:52:02.782Z,3.94
2023-04-15T02:53:03.075Z,3.91
2023-04-15T02:54:02.821Z,3.91
2023-04-15T02:55:03.112Z,3.87
2023-04-15T02:56:03.237Z,3.85
2023-04-15T02:57:02.185Z,3.83
2023-04-15T02:58:02.402Z,3.80
2023-04-15T02:59:02.544Z,3.78
2023-04-15T03:00:02.054Z,3.78
2023-04-15T03:01:02.443Z,3.81
2023-04-15T03:02:02.577Z,3.89
2023-04-15T03:03:02.334Z,3.93
2023-04-15T03:04:02.262Z,3.96
2023-04-15T03:05:02.015Z,3.94
2023-04-15T03:06:02.602Z,3.96
2023-04-15T03:07:02.529Z,3.94
2023-04-15T03:08:02.422Z,3.96
2023-04-15T03:09:02.486Z,3.94
2023-04-15T03:10:02.667Z,3.90
2023-04-15T03:11:02.103Z,3.89
2023-04-15T03:12:03.062Z,3.91
2023-04-15T03:13:02.592Z,3.86
2023-04-15T03:14:02.774Z,3.89
2023-04-15T03:15:02.646Z,3.88
2023-04-15T03:16:02.965Z,3.89
2023-04-15T03:17:02.138Z,3.87
2023-04-15T03:18:02.385Z,3.87
2023-04-15T03:19:02.148Z,3.86
2023-04-15T03:20:01.884Z,3.87
2023-04-15T03:21:02.365Z,3.87
2023-04-15T03:22:02.317Z,3.87
2023-04-15T03:23:02.505Z,3.83
2023-04-15T03:24:02.504Z,3.74
2023-04-15T03:25:01.950Z,3.71
2023-04-15T03:26:01.830Z,3.74
2023-04-15T03:27:02.998Z,3.73
2023-04-15T03:28:02.598Z,3.70
2023-04-15T03:29:03.216Z,3.72
2023-04-15T03:30:02.943Z,3.72
2023-04-15T03:31:02.561Z,3.69
2023-04-15T03:32:02.300Z,3.68
2023-04-15T03:33:02.697Z,3.67
2023-04-15T03:34:02.073Z,3.66
2023-04-15T03:35:02.199Z,3.59
2023-04-15T03:36:02.203Z,3.55
2023-04-15T03:37:02.625Z,3.58
2023-04-15T03:38:02.855Z,3.60
2023-04-15T03:39:03.226Z,3.62
2023-04-15T03:40:02.669Z,3.62
2023-04-15T03:41:02.961Z,3.63
2023-04-15T03:42:02.783Z,3.62
2023-04-15T03:43:02.580Z,3.62
2023-04-15T03:44:02.685Z,3.65
2023-04-15T03:45:02.811Z,3.63
2023-04-15T03:46:02.964Z,3.64
2023-04-15T03:47:02.228Z,3.63
2023-04-15T03:49:02.322Z,3.62
2023-04-15T03:50:02.213Z,3.63
2023-04-15T03:51:01.742Z,3.62
2023-04-15T03:52:02.048Z,3.61
2023-04-15T03:53:02.524Z,3.59
2023-04-15T03:54:02.184Z,3.56
2023-04-15T03:55:02.609Z,3.52
2023-04-15T03:56:02.694Z,3.52
2023-04-15T03:57:02.244Z,3.53
2023-04-15T03:58:02.805Z,3.52
2023-04-15T03:59:02.933Z,3.53
2023-04-15T04:00:02.434Z,3.52
2023-04-15T04:01:02.243Z,3.51
2023-04-15T04:02:02.865Z,3.46
2023-04-15T04:03:03.077Z,3.44
2023-04-15T04:04:02.496Z,3.39
2023-04-15T04:05:02.479Z,3.36
2023-04-15T04:06:02.713Z,3.30
2023-04-15T04:07:02.324Z,3.29
2023-04-15T04:08:02.464Z,3.26
2023-04-15T04:09:02.964Z,3.26
2023-04-15T04:10:02.420Z,3.24
2023-04-15T04:11:02.840Z,3.21
2023-04-15T04:12:02.547Z,3.19
2023-04-15T04:13:02.702Z,3.18
2023-04-15T04:14:02.984Z,3.17
2023-04-15T04:15:02.748Z,3.20
2023-04-15T04:16:02.518Z,3.20
2023-04-15T04:17:03.099Z,3.22
2023-04-15T04:18:02.972Z,3.25
2023-04-15T04:19:03.390Z,3.27
2023-04-15T04:20:03.159Z,3.26
2023-04-15T04:21:03.084Z,3.28
2023-04-15T04:22:03.243Z,3.28
2023-04-15T04:23:03.017Z,3.26
2023-04-15T04:24:02.643Z,3.26
2023-04-15T04:25:02.872Z,3.25
2023-04-15T04:26:02.770Z,3.31
2023-04-15T04:27:02.054Z,3.31
2023-04-15T04:28:02.707Z,3.33
2023-04-15T04:29:02.826Z,3.38
2023-04-15T04:30:02.702Z,3.37
2023-04-15T04:31:02.398Z,3.29
2023-04-15T04:32:02.860Z,3.28
2023-04-15T04:33:03.128Z,3.31
2023-04-15T04:34:02.691Z,3.32
2023-04-15T04:35:03.157Z,3.32
2023-04-15T04:36:02.644Z,3.30
2023-04-15T04:37:02.224Z,3.28
2023-04-15T04:38:02.371Z,3.27
2023-04-15T04:39:02.082Z,3.24
2023-04-15T04:40:02.012Z,3.23
2023-04-15T04:41:02.405Z,3.23
2023-04-15T04:42:02.394Z,3.22
2023-04-15T04:43:02.820Z,3.24
2023-04-15T04:44:02.625Z,3.28
2023-04-15T04:45:02.497Z,3.26
2023-04-15T04:46:02.459Z,3.28
2023-04-15T04:47:02.786Z,3.28
2023-04-15T04:48:03.118Z,3.30
2023-04-15T04:49:03.205Z,3.25
2023-04-15T04:50:03.212Z,3.16
2023-04-15T04:51:03.017Z,3.11
2023-04-15T04:52:02.333Z,3.07
2023-04-15T04:53:02.390Z,3.01
2023-04-15T04:54:03.821Z,2.97
2023-04-15T04:55:02.876Z,2.94
2023-04-15T04:56:02.354Z,2.90
2023-04-15T04:57:02.154Z,2.93
2023-04-15T04:58:02.512Z,3.00
2023-04-15T04:59:02.162Z,3.07
2023-04-15T05:00:01.981Z,3.11
2023-04-15T05:01:01.963Z,3.15
2023-04-15T05:02:03.652Z,3.16
2023-04-15T05:03:03.514Z,3.19
2023-04-15T05:04:03.558Z,3.20
2023-04-15T05:05:03.581Z,3.26
2023-04-15T05:06:03.314Z,3.28
2023-04-15T05:07:02.493Z,3.31
2023-04-15T05:08:02.412Z,3.34
2023-04-15T05:09:03.085Z,3.38
2023-04-15T05:10:02.273Z,3.40
2023-04-15T05:11:02.686Z,3.35
2023-04-15T05:12:02.986Z,3.28
2023-04-15T05:13:03.311Z,3.24
2023-04-15T05:14:02.765Z,3.23
2023-04-15T05:15:03.251Z,3.21
2023-04-15T05:16:03.146Z,3.18
2023-04-15T05:17:02.778Z,3.14
2023-04-15T05:18:02.825Z,3.14
2023-04-15T05:19:02.715Z,3.12
2023-04-15T05:20:02.666Z,3.11
2023-04-15T05:21:02.292Z,3.08
2023-04-15T05:22:02.500Z,3.08
2023-04-15T05:23:02.440Z,3.10
2023-04-15T05:24:02.745Z,3.11
2023-04-15T05:25:02.384Z,3.10
2023-04-15T05:26:02.708Z,3.10
2023-04-15T05:27:03.161Z,3.10
2023-04-15T05:28:02.819Z,3.10
2023-04-15T05:29:03.171Z,3.11
2023-04-15T05:30:03.027Z,3.13
2023-04-15T05:31:03.426Z,3.14
2023-04-15T05:32:02.265Z,3.17
2023-04-15T05:33:02.669Z,3.20
2023-04-15T05:34:02.493Z,3.20
2023-04-15T05:35:02.715Z,3.22
2023-04-15T05:36:02.305Z,3.20
2023-04-15T05:37:02.655Z,3.19
2023-04-15T05:38:02.814Z,3.19
2023-04-15T05:39:02.917Z,3.19
2023-04-15T05:40:02.481Z,3.19
2023-04-15T05:41:02.804Z,3.21
2023-04-15T05:42:03.006Z,3.20
2023-04-15T05:43:02.975Z,3.21
2023-04-15T05:44:02.892Z,3.24
2023-04-15T05:45:02.614Z,3.30
2023-04-15T05:46:03.093Z,3.39
2023-04-15T05:47:02.579Z,3.48
2023-04-15T05:48:02.437Z,3.58
2023-04-15T05:49:02.889Z,3.62
2023-04-15T05:50:02.267Z,3.65
2023-04-15T05:51:02.750Z,3.73
2023-04-15T05:52:02.299Z,3.82
2023-04-15T05:53:02.793Z,3.90
2023-04-15T05:54:02.411Z,3.99
2023-04-15T05:55:02.715Z,4.07
2023-04-15T05:56:02.428Z,4.19
2023-04-15T05:57:03.082Z,4.28
2023-04-15T05:58:03.052Z,4.39
2023-04-15T05:59:03.149Z,4.47
2023-04-15T06:00:03.071Z,4.59
2023-04-15T06:01:02.429Z,4.71
2023-04-15T06:02:02.411Z,4.82
2023-04-15T06:03:02.369Z,4.91
2023-04-15T06:04:02.649Z,5.02
2023-04-15T06:05:02.765Z,5.12
2023-04-15T06:06:02.300Z,5.24
2023-04-15T06:07:03.109Z,5.38
2023-04-15T06:08:03.298Z,5.50
2023-04-15T06:09:03.288Z,5.62
2023-04-15T06:10:03.305Z,5.63
2023-04-15T06:11:02.952Z,5.60
2023-04-15T06:12:02.657Z,5.59
2023-04-15T06:13:02.533Z,5.65
2023-04-15T06:14:02.264Z,5.78
2023-04-15T06:15:02.655Z,5.95
2023-04-15T06:16:02.326Z,6.11
2023-04-15T06:17:03.239Z,6.28
2023-04-15T06:18:03.303Z,6.43
2023-04-15T06:19:03.027Z,6.59
2023-04-15T06:20:02.795Z,6.68
2023-04-15T06:21:03.034Z,6.72
2023-04-15T06:22:02.429Z,6.73
2023-04-15T06:23:02.309Z,6.73
2023-04-15T06:24:01.899Z,6.80
2023-04-15T06:25:02.285Z,6.84
2023-04-15T06:26:02.449Z,6.91
2023-04-15T06:27:02.616Z,7.00
2023-04-15T06:28:02.398Z,7.10
2023-04-15T06:29:02.254Z,7.16
2023-04-15T06:30:01.930Z,7.27
2023-04-15T06:31:02.322Z,7.42
2023-04-15T06:32:02.694Z,7.61
2023-04-15T06:33:03.115Z,7.81
2023-04-15T06:34:02.631Z,7.97
2023-04-15T06:35:02.497Z,8.11
2023-04-15T06:36:02.724Z,8.25
2023-04-15T06:37:02.328Z,8.35
2023-04-15T06:38:01.745Z,8.46
2023-04-15T06:39:02.171Z,8.58
2023-04-15T06:40:02.325Z,8.69
2023-04-15T06:41:02.220Z,8.82
2023-04-15T06:42:02.957Z,8.95
2023-04-15T06:43:02.308Z,9.10
2023-04-15T06:44:02.457Z,9.23
2023-04-15T06:45:02.241Z,9.33
2023-04-15T06:46:02.691Z,9.45
2023-04-15T06:47:02.058Z,9.51
2023-04-15T06:48:02.123Z,9.61
2023-04-15T06:49:02.085Z,9.67
2023-04-15T06:50:02.095Z,9.77
2023-04-15T06:51:01.884Z,9.81
2023-04-15T06:52:02.492Z,9.82
2023-04-15T06:53:02.160Z,9.87
2023-04-15T06:54:02.566Z,9.99
2023-04-15T06:55:02.272Z,10.07
2023-04-15T06:56:02.592Z,10.10
2023-04-15T06:57:02.345Z,10.14
2023-04-15T06:58:02.378Z,10.23
2023-04-15T06:59:02.851Z,10.23
2023-04-15T07:00:02.335Z,10.23
2023-04-15T07:01:02.741Z,10.22
2023-04-15T07:02:02.579Z,10.23
2023-04-15T07:03:02.796Z,10.27
2023-04-15T07:04:02.541Z,10.30
2023-04-15T07:05:02.742Z,10.37
2023-04-15T07:06:03.106Z,10.41
2023-04-15T07:07:02.614Z,10.44
2023-04-15T07:08:02.558Z,10.44
2023-04-15T07:09:03.294Z,10.46
2023-04-15T07:10:03.083Z,10.47
2023-04-15T07:11:02.813Z,10.49
2023-04-15T07:12:02.721Z,10.57
2023-04-15T07:13:02.529Z,10.62
2023-04-15T07:14:02.873Z,10.68
2023-04-15T07:15:02.790Z,10.80
2023-04-15T07:16:02.640Z,10.89
2023-04-15T07:17:02.787Z,11.00
2023-04-15T07:18:03.332Z,11.07
2023-04-15T07:19:03.024Z,11.18
2023-04-15T07:20:02.831Z,11.27
2023-04-15T07:21:02.633Z,11.33
2023-04-15T07:22:02.242Z,11.41
2023-04-15T07:23:02.240Z,11.54
2023-04-15T07:24:02.457Z,11.64
2023-04-15T07:25:02.620Z,11.71
2023-04-15T07:26:02.575Z,11.73
2023-04-15T07:27:02.399Z,11.78
2023-04-15T07:28:02.874Z,11.88
2023-04-15T07:29:02.508Z,12.00
2023-04-15T07:30:02.564Z,12.14
2023-04-15T07:31:02.417Z,12.29
2023-04-15T07:32:02.417Z,12.41
2023-04-15T07:33:02.536Z,12.48
2023-04-15T07:34:02.446Z,12.56
2023-04-15T07:35:02.362Z,12.65
2023-04-15T07:36:02.911Z,12.64
2023-04-15T07:37:03.047Z,12.61
2023-04-15T07:38:03.059Z,12.70
2023-04-15T07:39:03.361Z,12.83
2023-04-15T07:40:02.864Z,12.97
2023-04-15T07:41:03.126Z,13.05
2023-04-15T07:42:02.713Z,13.13
2023-04-15T07:43:02.588Z,13.11
2023-04-15T07:44:02.842Z,13.15
2023-04-15T07:45:02.320Z,13.17
2023-04-15T07:46:02.876Z,13.22
2023-04-15T07:47:02.716Z,13.16
2023-04-15T07:48:02.626Z,13.11
2023-04-15T07:49:02.755Z,13.01
2023-04-15T07:50:02.996Z,12.95
2023-04-15T07:51:02.858Z,12.98
2023-04-15T07:52:02.915Z,13.05
2023-04-15T07:53:03.256Z,13.14
2023-04-15T07:54:03.064Z,13.19
2023-04-15T07:55:02.845Z,13.22
2023-04-15T07:56:02.647Z,13.25
2023-04-15T07:57:03.297Z,13.29
2023-04-15T07:58:03.334Z,13.35
2023-04-15T07:59:03.295Z,13.45
2023-04-15T08:00:03.602Z,13.47
2023-04-15T08:01:03.267Z,13.49
2023-04-15T08:02:03.065Z,13.45
2023-04-15T08:03:03.223Z,13.35
2023-04-15T08:04:02.887Z,13.29
2023-04-15T08:05:02.712Z,13.31
2023-04-15T08:06:03.157Z,13.32
2023-04-15T08:07:03.274Z,13.32
2023-04-15T08:08:03.215Z,13.32
2023-04-15T08:09:03.189Z,13.32
2023-04-15T08:10:02.915Z,13.34
2023-04-15T08:11:03.195Z,13.37
2023-04-15T08:12:03.157Z,13.39
2023-04-15T08:13:02.746Z,13.41
2023-04-15T08:14:02.761Z,13.34
2023-04-15T08:15:02.548Z,13.31
2023-04-15T08:16:03.042Z,13.29
2023-04-15T08:17:03.243Z,13.27
2023-04-15T08:18:03.346Z,13.23
2023-04-15T08:19:03.466Z,13.26
2023-04-15T08:20:03.061Z,13.32
2023-04-15T08:21:03.563Z,13.37
2023-04-15T08:22:02.810Z,13.41
2023-04-15T08:23:02.753Z,13.45
2023-04-15T08:24:02.429Z,13.54
2023-04-15T08:25:02.593Z,13.68
2023-04-15T08:26:03.040Z,13.84
2023-04-15T08:27:03.407Z,13.97
2023-04-15T08:28:03.187Z,14.05
2023-04-15T08:29:03.835Z,14.14
2023-04-15T08:30:05.056Z,14.17
2023-04-15T08:31:03.412Z,14.24
2023-04-15T08:32:03.586Z,14.24
2023-04-15T08:33:03.644Z,14.26
2023-04-15T08:34:03.527Z,14.31
2023-04-15T08:35:03.276Z,14.42
2023-04-15T08:36:03.403Z,14.52
2023-04-15T08:37:02.964Z,14.65
2023-04-15T08:38:02.593Z,14.68
2023-04-15T08:39:03.114Z,14.69
2023-04-15T08:40:02.613Z,14.80
2023-04-15T08:41:02.929Z,14.90
2023-04-15T08:42:03.238Z,14.84
2023-04-15T08:43:02.907Z,14.78
2023-04-15T08:44:03.286Z,14.77
2023-04-15T08:45:03.234Z,14.84
2023-04-15T08:46:03.085Z,14.95
2023-04-15T08:47:03.527Z,15.06
2023-04-15T08:48:03.239Z,15.17
2023-04-15T08:49:03.989Z,15.30
2023-04-15T08:50:03.720Z,15.43
2023-04-15T08:51:03.530Z,15.43
2023-04-15T08:52:02.536Z,15.40
2023-04-15T08:53:02.435Z,15.41
2023-04-15T08:54:02.986Z,15.43
2023-04-15T08:55:02.887Z,15.40
2023-04-15T08:56:02.614Z,15.45
2023-04-15T08:57:02.846Z,15.52
2023-04-15T08:58:02.951Z,15.66
2023-04-15T08:59:02.983Z,15.77
2023-04-15T09:00:03.846Z,15.82
2023-04-15T09:01:02.947Z,15.86
2023-04-15T09:02:02.927Z,15.91
2023-04-15T09:03:02.703Z,15.91
2023-04-15T09:04:02.908Z,15.83
2023-04-15T09:05:02.757Z,15.80
2023-04-15T09:06:02.578Z,15.83
2023-04-15T09:07:02.407Z,15.82
2023-04-15T09:08:02.103Z,15.70
2023-04-15T09:09:02.158Z,15.58
2023-04-15T09:10:01.974Z,15.50
2023-04-15T09:11:02.209Z,15.54
2023-04-15T09:12:02.723Z,15.61
2023-04-15T09:13:02.299Z,15.64
2023-04-15T09:14:02.155Z,15.68
2023-04-15T09:15:02.530Z,15.73
2023-04-15T09:16:02.408Z,15.77
2023-04-15T09:17:02.992Z,15.79
2023-04-15T09:18:02.783Z,15.83
2023-04-15T09:19:02.563Z,15.84
2023-04-15T09:20:02.494Z,15.89
2023-04-15T09:21:02.391Z,15.96
2023-04-15T09:22:03.006Z,15.96
2023-04-15T09:23:02.389Z,15.94
2023-04-15T09:24:03.033Z,16.03
2023-04-15T09:25:02.821Z,16.15
2023-04-15T09:26:02.592Z,16.25
2023-04-15T09:27:01.578Z,16.21
2023-04-15T09:28:01.857Z,16.23
2023-04-15T09:29:01.594Z,16.31
2023-04-15T09:30:02.202Z,16.41
2023-04-15T09:31:02.001Z,16.42
2023-04-15T09:32:01.620Z,16.45
2023-04-15T09:33:02.303Z,16.48
2023-04-15T09:34:02.155Z,16.47
2023-04-15T09:35:01.890Z,16.48
2023-04-15T09:36:01.820Z,16.38
2023-04-15T09:37:03.188Z,16.37
2023-04-15T09:38:02.368Z,16.41
2023-04-15T09:39:02.524Z,16.42
2023-04-15T09:40:02.421Z,16.49
2023-04-15T09:41:02.255Z,16.50
2023-04-15T09:42:01.752Z,16.57
2023-04-15T09:43:01.670Z,16.64
2023-04-15T09:44:01.979Z,16.73
2023-04-15T09:45:01.967Z,16.76
2023-04-15T09:46:01.776Z,16.81
2023-04-15T09:47:02.438Z,16.85
2023-04-15T09:48:02.382Z,16.90
2023-04-15T09:49:02.383Z,16.96
2023-04-15T09:50:02.568Z,16.94
2023-04-15T09:51:02.866Z,16.97
2023-04-15T09:52:05.802Z,17.07
2023-04-15T09:53:02.563Z,17.05
2023-04-15T09:54:02.621Z,17.10
2023-04-15T09:55:02.691Z,17.20
2023-04-15T09:56:02.576Z,17.27
2023-04-15T09:57:02.491Z,17.23
2023-04-15T09:58:03.117Z,17.15
2023-04-15T09:59:02.698Z,17.17
2023-04-15T10:00:02.565Z,17.25
2023-04-15T10:01:02.663Z,17.34
2023-04-15T10:02:03.243Z,17.44
2023-04-15T10:03:03.385Z,17.57
2023-04-15T10:04:04.114Z,17.67
2023-04-15T10:05:03.256Z,17.68
2023-04-15T10:06:03.222Z,17.69
2023-04-15T10:07:02.746Z,17.65
2023-04-15T10:08:03.248Z,17.64
2023-04-15T10:09:02.888Z,17.60
2023-04-15T10:10:03.233Z,17.50
2023-04-15T10:11:02.947Z,17.44
2023-04-15T10:12:02.748Z,17.40
2023-04-15T10:13:02.652Z,17.37
2023-04-15T10:14:02.850Z,17.40
2023-04-15T10:15:02.824Z,17.40
2023-04-15T10:16:02.726Z,17.45
2023-04-15T10:17:03.259Z,17.47
2023-04-15T10:18:03.426Z,17.51
2023-04-15T10:19:03.157Z,17.60
2023-04-15T10:20:03.701Z,17.67
2023-04-15T10:21:03.502Z,17.71
2023-04-15T10:22:03.410Z,17.72
2023-04-15T10:23:03.311Z,17.83
2023-04-15T10:24:04.064Z,17.91
2023-04-15T10:25:03.592Z,17.96
2023-04-15T10:26:03.386Z,17.80
2023-04-15T10:27:03.043Z,17.69
2023-04-15T10:28:03.470Z,17.45
2023-04-15T10:29:03.184Z,17.28
2023-04-15T10:30:03.004Z,17.09
2023-04-15T10:31:02.998Z,16.92
2023-04-15T10:32:03.451Z,16.91
2023-04-15T10:33:03.722Z,16.92
2023-04-15T10:34:04.036Z,16.86
2023-04-15T10:35:03.429Z,16.88
2023-04-15T10:36:03.946Z,16.96
2023-04-15T10:37:03.594Z,17.00
2023-04-15T10:38:03.429Z,16.97
2023-04-15T10:39:03.371Z,16.86
2023-04-15T10:40:03.996Z,16.72
2023-04-15T10:41:03.421Z,16.70
2023-04-15T10:42:02.971Z,16.75
2023-04-15T10:43:02.924Z,16.82
2023-04-15T10:44:03.224Z,16.82
2023-04-15T10:45:03.191Z,16.82
2023-04-15T10:46:03.175Z,16.93
2023-04-15T10:47:02.992Z,17.06
2023-04-15T10:48:03.795Z,17.07
2023-04-15T10:49:03.221Z,16.94
2023-04-15T10:50:03.120Z,16.93
2023-04-15T10:51:03.122Z,16.93
2023-04-15T10:52:03.114Z,16.78
2023-04-15T10:53:02.961Z,16.68
2023-04-15T10:54:03.525Z,16.76
2023-04-15T10:55:03.031Z,16.74
2023-04-15T10:56:02.963Z,16.71
2023-04-15T10:57:03.434Z,16.60
2023-04-15T10:58:03.446Z,16.62
2023-04-15T10:59:03.527Z,16.71
2023-04-15T11:00:03.748Z,16.83
2023-04-15T11:01:03.575Z,16.99
2023-04-15T11:02:02.658Z,17.18
2023-04-15T11:03:02.614Z,17.27
2023-04-15T11:04:03.358Z,17.23
2023-04-15T11:05:02.690Z,17.31
2023-04-15T11:06:02.633Z,17.24
2023-04-15T11:07:02.281Z,17.09
2023-04-15T11:08:02.215Z,16.88
2023-04-15T11:09:02.179Z,16.78
2023-04-15T11:10:02.157Z,16.67
2023-04-15T11:11:02.517Z,16.61
2023-04-15T11:12:02.669Z,16.62
2023-04-15T11:13:02.574Z,16.50
2023-04-15T11:14:02.711Z,16.46
2023-04-15T11:15:02.748Z,16.48
2023-04-15T11:16:02.762Z,16.54
2023-04-15T11:17:02.705Z,16.52
2023-04-15T11:18:02.583Z,16.41
2023-04-15T11:19:02.573Z,16.42
2023-04-15T11:20:02.548Z,16.40
2023-04-15T11:21:03.046Z,16.46
2023-04-15T11:22:02.480Z,16.53
2023-04-15T11:23:14.042Z,16.51
2023-04-15T11:24:02.896Z,16.50
2023-04-15T11:25:02.203Z,16.47
2023-04-15T11:26:02.115Z,16.36
2023-04-15T11:27:02.743Z,16.26
2023-04-15T11:28:03.023Z,16.22
2023-04-15T11:29:02.801Z,16.27
2023-04-15T11:30:02.843Z,16.23
2023-04-15T11:31:02.741Z,16.10
2023-04-15T11:32:02.522Z,15.86
2023-04-15T11:33:02.175Z,15.74
2023-04-15T11:34:02.219Z,15.71
2023-04-15T11:35:02.575Z,15.77
2023-04-15T11:36:02.456Z,15.84
2023-04-15T11:37:03.088Z,15.78
2023-04-15T11:38:03.306Z,15.73
2023-04-15T11:39:02.971Z,15.80
2023-04-15T11:40:02.959Z,15.83
2023-04-15T11:41:02.883Z,15.80
2023-04-15T11:42:02.535Z,15.81
2023-04-15T11:43:02.446Z,15.77
2023-04-15T11:44:02.691Z,15.71
2023-04-15T11:45:02.114Z,15.67
2023-04-15T11:46:02.072Z,15.54
2023-04-15T11:47:02.647Z,15.43
2023-04-15T11:48:02.576Z,15.45
2023-04-15T11:49:02.525Z,15.46
2023-04-15T11:50:02.462Z,15.37
2023-04-15T11:51:02.432Z,15.41
2023-04-15T11:52:03.018Z,15.48
2023-04-15T11:53:02.522Z,15.54
2023-04-15T11:54:03.436Z,15.56
2023-04-15T11:55:03.180Z,15.63
2023-04-15T11:56:02.890Z,15.59
2023-04-15T11:57:02.559Z,15.55
2023-04-15T11:58:02.382Z,15.55
2023-04-15T11:59:02.365Z,15.58
2023-04-15T12:00:02.043Z,15.54
2023-04-15T12:01:02.596Z,15.55
2023-04-15T12:02:03.111Z,15.48
2023-04-15T12:03:02.762Z,15.50
2023-04-15T12:04:03.097Z,15.45
2023-04-15T12:05:03.023Z,15.35
2023-04-15T12:06:02.846Z,15.36
2023-04-15T12:07:02.480Z,15.32
2023-04-15T12:08:02.285Z,15.24
2023-04-15T12:09:02.100Z,15.17
2023-04-15T12:10:02.535Z,15.03
2023-04-15T12:11:02.437Z,14.86
2023-04-15T12:12:02.758Z,14.63
2023-04-15T12:13:02.435Z,14.44
2023-04-15T12:14:02.619Z,14.23
2023-04-15T12:15:02.613Z,14.19
2023-04-15T12:16:02.763Z,14.22
2023-04-15T12:17:03.251Z,14.25
2023-04-15T12:18:02.840Z,14.20
2023-04-15T12:19:02.627Z,14.17
2023-04-15T12:20:03.180Z,14.09
2023-04-15T12:21:03.071Z,14.03
2023-04-15T12:22:02.011Z,13.93
2023-04-15T12:23:02.634Z,13.92
2023-04-15T12:24:02.449Z,13.84
2023-04-15T12:25:02.041Z,13.83
2023-04-15T12:26:02.639Z,13.78
2023-04-15T12:27:02.162Z,13.76
2023-04-15T12:28:02.758Z,13.77
2023-04-15T12:29:02.304Z,13.69
2023-04-15T12:30:02.815Z,13.61
2023-04-15T12:31:02.458Z,13.61
2023-04-15T12:32:02.408Z,13.60
2023-04-15T12:33:02.979Z,13.59
2023-04-15T12:34:02.831Z,13.62
2023-04-15T12:35:03.029Z,13.70
2023-04-15T12:36:03.078Z,13.81
2023-04-15T12:37:02.748Z,13.88
2023-04-15T12:38:03.245Z,13.81
2023-04-15T12:39:03.055Z,13.75
2023-04-15T12:40:02.989Z,13.76
2023-04-15T12:41:03.258Z,13.79
2023-04-15T12:42:03.140Z,13.83
2023-04-15T12:43:02.773Z,13.89
2023-04-15T12:44:02.612Z,13.85
2023-04-15T12:45:02.366Z,13.75
2023-04-15T12:46:02.276Z,13.75
2023-04-15T12:47:02.941Z,13.74
2023-04-15T12:48:02.383Z,13.76
2023-04-15T12:49:02.161Z,13.85
2023-04-15T12:50:02.573Z,13.91
2023-04-15T12:51:03.933Z,13.94
2023-04-15T12:52:02.087Z,13.94
2023-04-15T12:53:02.673Z,13.89
2023-04-15T12:54:02.889Z,13.84
2023-04-15T12:55:02.902Z,13.81
2023-04-15T12:56:02.761Z,13.80
2023-04-15T12:57:05.973Z,13.75
2023-04-15T12:58:03.000Z,13.70
2023-04-15T12:59:03.343Z,13.57
2023-04-15T13:00:02.978Z,13.54
2023-04-15T13:01:02.841Z,13.56
2023-04-15T13:02:03.448Z,13.57
2023-04-15T13:03:03.442Z,13.53
2023-04-15T13:04:02.177Z,13.49
2023-04-15T13:05:02.485Z,13.48
2023-04-15T13:06:02.344Z,13.41
2023-04-15T13:07:02.584Z,13.35